sensor_id;sensor_type;location;lat;lon;timestamp;P1;durP1;ratioP1;P2;durP2;ratioP2
8626;SDS011;4351;51.422;6.794;2024-03-02T00:00:23;1.60;;;1.40;;
8626;SDS011;4351;51.422;6.794;2024-03-02T00:02:51;4.57;;;1.60;;
8626;SDS011;4351;51.422;6.794;2024-03-02T00:05:20;2.97;;;1.70;;
8626;SDS011;4351;51.422;6.794;2024-03-02T00:07:52;2.93;;;1.50;;
8626;SDS011;4351;51.422;6.794;2024-03-02T00:10:21;2.10;;;1.40;;
8626;SDS011;4351;51.422;6.794;2024-03-02T00:12:51;2.57;;;1.70;;
8626;SDS011;4351;51.422;6.794;2024-03-02T00:15:26;2.27;;;1.57;;
8626;SDS011;4351;51.422;6.794;2024-03-02T00:17:58;2.73;;;1.67;;
8626;SDS011;4351;51.422;6.794;2024-03-02T00:20:26;2.43;;;1.60;;
8626;SDS011;4351;51.422;6.794;2024-03-02T00:22:58;3.23;;;1.50;;
8626;SDS011;4351;51.422;6.794;2024-03-02T00:25:27;2.73;;;1.50;;
8626;SDS011;4351;51.422;6.794;2024-03-02T00:28:02;2.33;;;1.30;;
8626;SDS011;4351;51.422;6.794;2024-03-02T00:30:39;4.87;;;1.70;;
8626;SDS011;4351;51.422;6.794;2024-03-02T00:33:11;2.73;;;1.20;;
8626;SDS011;4351;51.422;6.794;2024-03-02T00:35:39;2.67;;;1.70;;
8626;SDS011;4351;51.422;6.794;2024-03-02T00:38:08;3.43;;;1.40;;
8626;SDS011;4351;51.422;6.794;2024-03-02T00:40:36;2.70;;;1.40;;
8626;SDS011;4351;51.422;6.794;2024-03-02T00:43:04;3.00;;;1.40;;
8626;SDS011;4351;51.422;6.794;2024-03-02T00:45:32;3.10;;;1.40;;
8626;SDS011;4351;51.422;6.794;2024-03-02T00:48:00;3.17;;;1.40;;
8626;SDS011;4351;51.422;6.794;2024-03-02T00:50:27;2.77;;;1.30;;
8626;SDS011;4351;51.422;6.794;2024-03-02T00:52:56;2.77;;;1.30;;
8626;SDS011;4351;51.422;6.794;2024-03-02T00:55:26;3.57;;;1.20;;
8626;SDS011;4351;51.422;6.794;2024-03-02T00:57:54;1.97;;;1.30;;
8626;SDS011;4351;51.422;6.794;2024-03-02T01:00:22;3.17;;;1.67;;
8626;SDS011;4351;51.422;6.794;2024-03-02T01:02:50;1.80;;;1.30;;
8626;SDS011;4351;51.422;6.794;2024-03-02T01:05:18;2.00;;;1.50;;
8626;SDS011;4351;51.422;6.794;2024-03-02T01:07:46;2.63;;;1.50;;
8626;SDS011;4351;51.422;6.794;2024-03-02T01:10:13;4.07;;;1.70;;
8626;SDS011;4351;51.422;6.794;2024-03-02T01:12:42;2.07;;;1.27;;
8626;SDS011;4351;51.422;6.794;2024-03-02T01:15:10;2.10;;;1.30;;
8626;SDS011;4351;51.422;6.794;2024-03-02T01:17:38;2.20;;;1.27;;
8626;SDS011;4351;51.422;6.794;2024-03-02T01:20:07;3.83;;;1.53;;
8626;SDS011;4351;51.422;6.794;2024-03-02T01:22:36;3.73;;;1.60;;
8626;SDS011;4351;51.422;6.794;2024-03-02T01:25:04;2.57;;;1.30;;
8626;SDS011;4351;51.422;6.794;2024-03-02T01:27:32;1.90;;;1.40;;
8626;SDS011;4351;51.422;6.794;2024-03-02T01:30:01;1.63;;;1.30;;
8626;SDS011;4351;51.422;6.794;2024-03-02T01:32:28;2.60;;;1.70;;
8626;SDS011;4351;51.422;6.794;2024-03-02T01:34:56;1.77;;;1.30;;
8626;SDS011;4351;51.422;6.794;2024-03-02T01:37:24;3.27;;;1.50;;
8626;SDS011;4351;51.422;6.794;2024-03-02T01:39:51;2.50;;;1.40;;
8626;SDS011;4351;51.422;6.794;2024-03-02T01:42:19;5.17;;;1.60;;
8626;SDS011;4351;51.422;6.794;2024-03-02T01:44:47;3.47;;;1.60;;
8626;SDS011;4351;51.422;6.794;2024-03-02T01:47:17;2.13;;;1.30;;
8626;SDS011;4351;51.422;6.794;2024-03-02T01:49:45;2.23;;;1.30;;
8626;SDS011;4351;51.422;6.794;2024-03-02T01:52:12;2.67;;;1.40;;
8626;SDS011;4351;51.422;6.794;2024-03-02T01:54:40;1.93;;;1.30;;
8626;SDS011;4351;51.422;6.794;2024-03-02T01:57:08;2.40;;;1.30;;
8626;SDS011;4351;51.422;6.794;2024-03-02T01:59:36;1.40;;;1.00;;
8626;SDS011;4351;51.422;6.794;2024-03-02T02:02:03;3.63;;;1.27;;
8626;SDS011;4351;51.422;6.794;2024-03-02T02:04:32;2.93;;;1.30;;
8626;SDS011;4351;51.422;6.794;2024-03-02T02:07:00;3.80;;;1.20;;
8626;SDS011;4351;51.422;6.794;2024-03-02T02:09:28;3.47;;;1.27;;
8626;SDS011;4351;51.422;6.794;2024-03-02T02:11:55;2.60;;;1.27;;
8626;SDS011;4351;51.422;6.794;2024-03-02T02:14:23;2.90;;;1.37;;
8626;SDS011;4351;51.422;6.794;2024-03-02T02:16:51;3.13;;;1.30;;
8626;SDS011;4351;51.422;6.794;2024-03-02T02:19:19;3.10;;;1.33;;
8626;SDS011;4351;51.422;6.794;2024-03-02T02:21:49;2.97;;;1.30;;
8626;SDS011;4351;51.422;6.794;2024-03-02T02:24:16;2.33;;;1.37;;
8626;SDS011;4351;51.422;6.794;2024-03-02T02:26:44;2.70;;;1.30;;
8626;SDS011;4351;51.422;6.794;2024-03-02T02:29:12;1.60;;;1.17;;
8626;SDS011;4351;51.422;6.794;2024-03-02T02:31:39;1.73;;;1.23;;
8626;SDS011;4351;51.422;6.794;2024-03-02T02:34:07;2.43;;;1.40;;
8626;SDS011;4351;51.422;6.794;2024-03-02T02:36:36;2.33;;;1.50;;
8626;SDS011;4351;51.422;6.794;2024-03-02T02:39:06;2.90;;;1.40;;
8626;SDS011;4351;51.422;6.794;2024-03-02T02:41:37;3.17;;;1.30;;
8626;SDS011;4351;51.422;6.794;2024-03-02T02:44:05;2.10;;;1.03;;
8626;SDS011;4351;51.422;6.794;2024-03-02T02:46:32;1.70;;;1.20;;
8626;SDS011;4351;51.422;6.794;2024-03-02T02:49:00;2.63;;;1.30;;
8626;SDS011;4351;51.422;6.794;2024-03-02T02:51:28;2.43;;;1.07;;
8626;SDS011;4351;51.422;6.794;2024-03-02T02:53:55;3.33;;;1.20;;
8626;SDS011;4351;51.422;6.794;2024-03-02T02:56:25;3.00;;;1.30;;
8626;SDS011;4351;51.422;6.794;2024-03-02T02:58:52;2.00;;;1.13;;
8626;SDS011;4351;51.422;6.794;2024-03-02T03:01:20;2.10;;;1.10;;
8626;SDS011;4351;51.422;6.794;2024-03-02T03:03:48;3.33;;;1.20;;
8626;SDS011;4351;51.422;6.794;2024-03-02T03:06:16;2.10;;;1.27;;
8626;SDS011;4351;51.422;6.794;2024-03-02T03:08:43;2.73;;;1.17;;
8626;SDS011;4351;51.422;6.794;2024-03-02T03:11:12;3.93;;;1.50;;
8626;SDS011;4351;51.422;6.794;2024-03-02T03:13:41;3.70;;;1.10;;
8626;SDS011;4351;51.422;6.794;2024-03-02T03:16:09;2.73;;;1.30;;
8626;SDS011;4351;51.422;6.794;2024-03-02T03:18:37;2.50;;;1.17;;
8626;SDS011;4351;51.422;6.794;2024-03-02T03:21:04;2.07;;;1.20;;
8626;SDS011;4351;51.422;6.794;2024-03-02T03:23:32;1.77;;;1.10;;
8626;SDS011;4351;51.422;6.794;2024-03-02T03:26:00;2.37;;;1.13;;
8626;SDS011;4351;51.422;6.794;2024-03-02T03:28:28;4.63;;;1.30;;
8626;SDS011;4351;51.422;6.794;2024-03-02T03:30:57;2.33;;;1.30;;
8626;SDS011;4351;51.422;6.794;2024-03-02T03:33:25;2.53;;;1.23;;
8626;SDS011;4351;51.422;6.794;2024-03-02T03:35:53;2.30;;;1.10;;
8626;SDS011;4351;51.422;6.794;2024-03-02T03:38:21;2.77;;;1.20;;
8626;SDS011;4351;51.422;6.794;2024-03-02T03:40:48;2.67;;;1.40;;
8626;SDS011;4351;51.422;6.794;2024-03-02T03:43:16;2.67;;;1.47;;
8626;SDS011;4351;51.422;6.794;2024-03-02T03:45:44;2.03;;;1.20;;
8626;SDS011;4351;51.422;6.794;2024-03-02T03:48:13;3.30;;;1.53;;
8626;SDS011;4351;51.422;6.794;2024-03-02T03:50:41;2.47;;;1.27;;
8626;SDS011;4351;51.422;6.794;2024-03-02T03:53:08;3.53;;;1.30;;
8626;SDS011;4351;51.422;6.794;2024-03-02T03:55:36;1.80;;;1.20;;
8626;SDS011;4351;51.422;6.794;2024-03-02T03:58:04;3.20;;;1.40;;
8626;SDS011;4351;51.422;6.794;2024-03-02T04:00:32;2.37;;;1.40;;
8626;SDS011;4351;51.422;6.794;2024-03-02T04:02:59;3.43;;;1.30;;
8626;SDS011;4351;51.422;6.794;2024-03-02T04:05:28;1.80;;;1.10;;
8626;SDS011;4351;51.422;6.794;2024-03-02T04:07:56;3.90;;;1.47;;
8626;SDS011;4351;51.422;6.794;2024-03-02T04:10:24;2.80;;;1.50;;
8626;SDS011;4351;51.422;6.794;2024-03-02T04:12:52;2.13;;;1.73;;
8626;SDS011;4351;51.422;6.794;2024-03-02T04:15:20;2.20;;;1.30;;
8626;SDS011;4351;51.422;6.794;2024-03-02T04:17:49;2.20;;;1.30;;
8626;SDS011;4351;51.422;6.794;2024-03-02T04:20:17;3.47;;;1.50;;
8626;SDS011;4351;51.422;6.794;2024-03-02T04:22:47;2.70;;;1.70;;
8626;SDS011;4351;51.422;6.794;2024-03-02T04:25:15;1.90;;;1.50;;
8626;SDS011;4351;51.422;6.794;2024-03-02T04:27:43;2.33;;;1.33;;
8626;SDS011;4351;51.422;6.794;2024-03-02T04:30:11;2.23;;;1.27;;
8626;SDS011;4351;51.422;6.794;2024-03-02T04:32:39;2.73;;;1.80;;
8626;SDS011;4351;51.422;6.794;2024-03-02T04:35:07;3.33;;;1.60;;
8626;SDS011;4351;51.422;6.794;2024-03-02T04:37:36;2.90;;;1.73;;
8626;SDS011;4351;51.422;6.794;2024-03-02T04:40:06;2.87;;;1.60;;
8626;SDS011;4351;51.422;6.794;2024-03-02T04:42:35;3.13;;;1.60;;
8626;SDS011;4351;51.422;6.794;2024-03-02T04:45:03;2.47;;;1.63;;
8626;SDS011;4351;51.422;6.794;2024-03-02T04:47:31;3.37;;;1.60;;
8626;SDS011;4351;51.422;6.794;2024-03-02T04:49:59;4.90;;;1.47;;
8626;SDS011;4351;51.422;6.794;2024-03-02T04:52:27;3.43;;;1.80;;
8626;SDS011;4351;51.422;6.794;2024-03-02T04:54:55;1.93;;;1.33;;
8626;SDS011;4351;51.422;6.794;2024-03-02T04:57:51;2.03;;;1.33;;
8626;SDS011;4351;51.422;6.794;2024-03-02T05:00:21;4.17;;;1.80;;
8626;SDS011;4351;51.422;6.794;2024-03-02T05:02:49;3.23;;;1.90;;
8626;SDS011;4351;51.422;6.794;2024-03-02T05:05:17;4.57;;;2.20;;
8626;SDS011;4351;51.422;6.794;2024-03-02T05:07:45;3.67;;;1.90;;
8626;SDS011;4351;51.422;6.794;2024-03-02T05:10:13;3.50;;;1.63;;
8626;SDS011;4351;51.422;6.794;2024-03-02T05:12:41;3.03;;;1.70;;
8626;SDS011;4351;51.422;6.794;2024-03-02T05:15:24;2.87;;;1.87;;
8626;SDS011;4351;51.422;6.794;2024-03-02T05:17:53;3.27;;;1.57;;
8626;SDS011;4351;51.422;6.794;2024-03-02T05:20:21;3.13;;;1.60;;
8626;SDS011;4351;51.422;6.794;2024-03-02T05:22:48;3.67;;;1.40;;
8626;SDS011;4351;51.422;6.794;2024-03-02T05:25:16;3.13;;;1.57;;
8626;SDS011;4351;51.422;6.794;2024-03-02T05:27:45;2.13;;;1.23;;
8626;SDS011;4351;51.422;6.794;2024-03-02T05:30:13;2.20;;;1.30;;
8626;SDS011;4351;51.422;6.794;2024-03-02T05:32:42;2.70;;;1.50;;
8626;SDS011;4351;51.422;6.794;2024-03-02T05:35:10;3.17;;;1.50;;
8626;SDS011;4351;51.422;6.794;2024-03-02T05:37:39;5.27;;;1.60;;
8626;SDS011;4351;51.422;6.794;2024-03-02T05:40:07;4.73;;;1.50;;
8626;SDS011;4351;51.422;6.794;2024-03-02T05:42:35;2.40;;;1.30;;
8626;SDS011;4351;51.422;6.794;2024-03-02T05:45:04;2.80;;;1.20;;
8626;SDS011;4351;51.422;6.794;2024-03-02T05:47:31;4.03;;;1.57;;
8626;SDS011;4351;51.422;6.794;2024-03-02T05:50:01;4.80;;;1.50;;
8626;SDS011;4351;51.422;6.794;2024-03-02T05:52:30;2.87;;;1.60;;
8626;SDS011;4351;51.422;6.794;2024-03-02T05:54:57;4.27;;;1.30;;
8626;SDS011;4351;51.422;6.794;2024-03-02T05:57:26;3.43;;;1.50;;
8626;SDS011;4351;51.422;6.794;2024-03-02T06:00:12;4.27;;;1.70;;
8626;SDS011;4351;51.422;6.794;2024-03-02T06:02:42;2.90;;;1.70;;
8626;SDS011;4351;51.422;6.794;2024-03-02T06:05:12;1.33;;;1.23;;
8626;SDS011;4351;51.422;6.794;2024-03-02T06:07:39;2.97;;;1.47;;
8626;SDS011;4351;51.422;6.794;2024-03-02T06:10:07;4.43;;;1.57;;
8626;SDS011;4351;51.422;6.794;2024-03-02T06:12:39;2.73;;;1.63;;
8626;SDS011;4351;51.422;6.794;2024-03-02T06:15:07;4.47;;;1.70;;
8626;SDS011;4351;51.422;6.794;2024-03-02T06:17:35;2.70;;;1.50;;
8626;SDS011;4351;51.422;6.794;2024-03-02T06:20:03;1.93;;;1.30;;
8626;SDS011;4351;51.422;6.794;2024-03-02T06:22:32;2.73;;;1.60;;
8626;SDS011;4351;51.422;6.794;2024-03-02T06:25:00;2.87;;;1.57;;
8626;SDS011;4351;51.422;6.794;2024-03-02T06:27:28;3.40;;;1.77;;
8626;SDS011;4351;51.422;6.794;2024-03-02T06:29:56;2.57;;;1.47;;
8626;SDS011;4351;51.422;6.794;2024-03-02T06:32:23;2.00;;;1.20;;
8626;SDS011;4351;51.422;6.794;2024-03-02T06:34:52;2.67;;;1.60;;
8626;SDS011;4351;51.422;6.794;2024-03-02T06:37:20;2.30;;;1.40;;
8626;SDS011;4351;51.422;6.794;2024-03-02T06:39:49;2.70;;;1.63;;
8626;SDS011;4351;51.422;6.794;2024-03-02T06:42:17;2.83;;;1.17;;
8626;SDS011;4351;51.422;6.794;2024-03-02T06:44:44;3.50;;;1.83;;
8626;SDS011;4351;51.422;6.794;2024-03-02T06:47:12;4.40;;;1.80;;
8626;SDS011;4351;51.422;6.794;2024-03-02T06:49:43;3.83;;;1.90;;
8626;SDS011;4351;51.422;6.794;2024-03-02T06:52:11;4.63;;;1.63;;
8626;SDS011;4351;51.422;6.794;2024-03-02T06:54:38;3.57;;;1.57;;
8626;SDS011;4351;51.422;6.794;2024-03-02T06:57:08;1.97;;;1.40;;
8626;SDS011;4351;51.422;6.794;2024-03-02T06:59:36;3.77;;;1.80;;
8626;SDS011;4351;51.422;6.794;2024-03-02T07:02:04;2.37;;;1.63;;
8626;SDS011;4351;51.422;6.794;2024-03-02T07:04:32;2.40;;;1.60;;
8626;SDS011;4351;51.422;6.794;2024-03-02T07:06:59;3.63;;;1.93;;
8626;SDS011;4351;51.422;6.794;2024-03-02T07:09:27;2.53;;;1.70;;
8626;SDS011;4351;51.422;6.794;2024-03-02T07:11:55;3.20;;;1.67;;
8626;SDS011;4351;51.422;6.794;2024-03-02T07:14:24;5.20;;;1.93;;
8626;SDS011;4351;51.422;6.794;2024-03-02T07:17:12;5.73;;;2.03;;
8626;SDS011;4351;51.422;6.794;2024-03-02T07:19:40;3.37;;;1.67;;
8626;SDS011;4351;51.422;6.794;2024-03-02T07:22:08;2.90;;;1.50;;
8626;SDS011;4351;51.422;6.794;2024-03-02T07:24:39;3.57;;;1.93;;
8626;SDS011;4351;51.422;6.794;2024-03-02T07:27:06;3.37;;;2.13;;
8626;SDS011;4351;51.422;6.794;2024-03-02T07:29:35;3.23;;;2.03;;
8626;SDS011;4351;51.422;6.794;2024-03-02T07:32:04;4.03;;;1.70;;
8626;SDS011;4351;51.422;6.794;2024-03-02T07:34:31;4.73;;;1.70;;
8626;SDS011;4351;51.422;6.794;2024-03-02T07:36:59;4.00;;;1.60;;
8626;SDS011;4351;51.422;6.794;2024-03-02T07:39:27;3.53;;;1.63;;
8626;SDS011;4351;51.422;6.794;2024-03-02T07:41:56;2.73;;;1.50;;
8626;SDS011;4351;51.422;6.794;2024-03-02T07:44:24;4.60;;;2.10;;
8626;SDS011;4351;51.422;6.794;2024-03-02T07:46:53;3.07;;;1.87;;
8626;SDS011;4351;51.422;6.794;2024-03-02T07:49:21;3.80;;;1.90;;
8626;SDS011;4351;51.422;6.794;2024-03-02T07:51:49;2.27;;;1.73;;
8626;SDS011;4351;51.422;6.794;2024-03-02T07:54:16;5.20;;;2.10;;
8626;SDS011;4351;51.422;6.794;2024-03-02T07:56:44;5.53;;;2.03;;
8626;SDS011;4351;51.422;6.794;2024-03-02T07:59:13;4.90;;;2.00;;
8626;SDS011;4351;51.422;6.794;2024-03-02T08:01:41;2.63;;;1.70;;
8626;SDS011;4351;51.422;6.794;2024-03-02T08:04:10;3.73;;;2.03;;
8626;SDS011;4351;51.422;6.794;2024-03-02T08:06:38;4.90;;;2.00;;
8626;SDS011;4351;51.422;6.794;2024-03-02T08:09:05;3.57;;;1.80;;
8626;SDS011;4351;51.422;6.794;2024-03-02T08:11:36;3.03;;;1.83;;
8626;SDS011;4351;51.422;6.794;2024-03-02T08:14:05;3.73;;;2.10;;
8626;SDS011;4351;51.422;6.794;2024-03-02T08:16:32;6.60;;;2.43;;
8626;SDS011;4351;51.422;6.794;2024-03-02T08:19:00;7.53;;;1.90;;
8626;SDS011;4351;51.422;6.794;2024-03-02T08:21:29;4.43;;;1.80;;
8626;SDS011;4351;51.422;6.794;2024-03-02T08:23:58;3.30;;;1.70;;
8626;SDS011;4351;51.422;6.794;2024-03-02T08:26:26;4.80;;;1.93;;
8626;SDS011;4351;51.422;6.794;2024-03-02T08:28:55;5.53;;;2.07;;
8626;SDS011;4351;51.422;6.794;2024-03-02T08:31:23;2.63;;;1.73;;
8626;SDS011;4351;51.422;6.794;2024-03-02T08:33:50;4.47;;;1.97;;
8626;SDS011;4351;51.422;6.794;2024-03-02T08:36:18;3.50;;;1.70;;
8626;SDS011;4351;51.422;6.794;2024-03-02T08:38:47;3.23;;;1.97;;
8626;SDS011;4351;51.422;6.794;2024-03-02T08:41:15;2.50;;;1.90;;
8626;SDS011;4351;51.422;6.794;2024-03-02T08:43:43;3.40;;;2.10;;
8626;SDS011;4351;51.422;6.794;2024-03-02T08:46:11;2.90;;;1.87;;
8626;SDS011;4351;51.422;6.794;2024-03-02T08:48:39;3.53;;;2.00;;
8626;SDS011;4351;51.422;6.794;2024-03-02T08:51:07;3.23;;;2.20;;
8626;SDS011;4351;51.422;6.794;2024-03-02T08:53:36;3.00;;;1.77;;
8626;SDS011;4351;51.422;6.794;2024-03-02T08:56:06;2.43;;;1.50;;
8626;SDS011;4351;51.422;6.794;2024-03-02T08:58:34;2.97;;;2.10;;
8626;SDS011;4351;51.422;6.794;2024-03-02T09:01:02;3.03;;;1.80;;
8626;SDS011;4351;51.422;6.794;2024-03-02T09:03:30;6.93;;;1.97;;
8626;SDS011;4351;51.422;6.794;2024-03-02T09:06:00;3.23;;;1.67;;
8626;SDS011;4351;51.422;6.794;2024-03-02T09:08:28;4.43;;;1.83;;
8626;SDS011;4351;51.422;6.794;2024-03-02T09:10:55;4.73;;;1.90;;
8626;SDS011;4351;51.422;6.794;2024-03-02T09:13:25;5.50;;;1.97;;
8626;SDS011;4351;51.422;6.794;2024-03-02T09:15:53;2.93;;;1.77;;
8626;SDS011;4351;51.422;6.794;2024-03-02T09:18:20;2.73;;;1.57;;
8626;SDS011;4351;51.422;6.794;2024-03-02T09:20:48;1.83;;;1.33;;
8626;SDS011;4351;51.422;6.794;2024-03-02T09:23:16;2.70;;;1.53;;
8626;SDS011;4351;51.422;6.794;2024-03-02T09:25:43;3.77;;;1.83;;
8626;SDS011;4351;51.422;6.794;2024-03-02T09:28:11;3.03;;;1.73;;
8626;SDS011;4351;51.422;6.794;2024-03-02T09:30:40;3.23;;;1.63;;
8626;SDS011;4351;51.422;6.794;2024-03-02T09:33:08;3.30;;;1.73;;
8626;SDS011;4351;51.422;6.794;2024-03-02T09:35:38;5.90;;;1.93;;
8626;SDS011;4351;51.422;6.794;2024-03-02T09:38:06;3.63;;;1.70;;
8626;SDS011;4351;51.422;6.794;2024-03-02T09:40:34;3.97;;;1.50;;
8626;SDS011;4351;51.422;6.794;2024-03-02T09:43:02;4.20;;;1.63;;
8626;SDS011;4351;51.422;6.794;2024-03-02T09:45:30;2.80;;;1.57;;
8626;SDS011;4351;51.422;6.794;2024-03-02T09:48:00;2.87;;;1.60;;
8626;SDS011;4351;51.422;6.794;2024-03-02T09:50:28;3.37;;;1.80;;
8626;SDS011;4351;51.422;6.794;2024-03-02T09:52:56;4.10;;;1.53;;
8626;SDS011;4351;51.422;6.794;2024-03-02T09:55:23;2.97;;;1.63;;
8626;SDS011;4351;51.422;6.794;2024-03-02T09:57:51;2.47;;;1.40;;
8626;SDS011;4351;51.422;6.794;2024-03-02T10:00:19;5.50;;;1.60;;
8626;SDS011;4351;51.422;6.794;2024-03-02T10:02:47;2.60;;;1.50;;
8626;SDS011;4351;51.422;6.794;2024-03-02T10:05:26;2.90;;;1.40;;
8626;SDS011;4351;51.422;6.794;2024-03-02T10:07:58;2.53;;;1.30;;
8626;SDS011;4351;51.422;6.794;2024-03-02T10:10:33;4.10;;;1.17;;
8626;SDS011;4351;51.422;6.794;2024-03-02T10:13:03;2.77;;;1.20;;
8626;SDS011;4351;51.422;6.794;2024-03-02T10:15:31;2.80;;;1.03;;
8626;SDS011;4351;51.422;6.794;2024-03-02T10:17:59;3.00;;;1.13;;
8626;SDS011;4351;51.422;6.794;2024-03-02T10:20:28;5.73;;;1.20;;
8626;SDS011;4351;51.422;6.794;2024-03-02T10:22:56;4.13;;;1.40;;
8626;SDS011;4351;51.422;6.794;2024-03-02T10:25:36;2.50;;;0.90;;
8626;SDS011;4351;51.422;6.794;2024-03-02T10:28:16;1.33;;;1.07;;
8626;SDS011;4351;51.422;6.794;2024-03-02T10:30:44;3.37;;;1.10;;
8626;SDS011;4351;51.422;6.794;2024-03-02T10:33:14;2.83;;;1.10;;
8626;SDS011;4351;51.422;6.794;2024-03-02T10:35:43;3.20;;;1.27;;
8626;SDS011;4351;51.422;6.794;2024-03-02T10:38:11;2.27;;;1.03;;
8626;SDS011;4351;51.422;6.794;2024-03-02T10:40:39;3.87;;;1.23;;
8626;SDS011;4351;51.422;6.794;2024-03-02T10:43:06;6.33;;;1.30;;
8626;SDS011;4351;51.422;6.794;2024-03-02T10:45:35;3.00;;;1.23;;
8626;SDS011;4351;51.422;6.794;2024-03-02T10:48:03;5.00;;;1.17;;
8626;SDS011;4351;51.422;6.794;2024-03-02T10:50:31;4.27;;;1.70;;
8626;SDS011;4351;51.422;6.794;2024-03-02T10:53:01;2.80;;;1.50;;
8626;SDS011;4351;51.422;6.794;2024-03-02T10:55:31;2.53;;;1.20;;
8626;SDS011;4351;51.422;6.794;2024-03-02T10:57:59;3.80;;;1.60;;
8626;SDS011;4351;51.422;6.794;2024-03-02T11:00:30;3.87;;;1.40;;
8626;SDS011;4351;51.422;6.794;2024-03-02T11:03:03;1.87;;;1.10;;
8626;SDS011;4351;51.422;6.794;2024-03-02T11:05:33;3.20;;;1.23;;
8626;SDS011;4351;51.422;6.794;2024-03-02T11:08:06;1.70;;;1.00;;
8626;SDS011;4351;51.422;6.794;2024-03-02T11:10:34;2.80;;;1.07;;
8626;SDS011;4351;51.422;6.794;2024-03-02T11:13:05;2.00;;;0.97;;
8626;SDS011;4351;51.422;6.794;2024-03-02T11:15:33;2.70;;;1.20;;
8626;SDS011;4351;51.422;6.794;2024-03-02T11:18:02;2.67;;;1.10;;
8626;SDS011;4351;51.422;6.794;2024-03-02T11:20:35;3.20;;;1.20;;
8626;SDS011;4351;51.422;6.794;2024-03-02T11:23:07;4.47;;;1.03;;
8626;SDS011;4351;51.422;6.794;2024-03-02T11:25:35;3.73;;;1.40;;
8626;SDS011;4351;51.422;6.794;2024-03-02T11:28:05;3.13;;;1.37;;
8626;SDS011;4351;51.422;6.794;2024-03-02T11:30:51;4.27;;;1.37;;
8626;SDS011;4351;51.422;6.794;2024-03-02T11:33:26;3.00;;;1.40;;
8626;SDS011;4351;51.422;6.794;2024-03-02T11:35:56;1.80;;;1.20;;
8626;SDS011;4351;51.422;6.794;2024-03-02T11:38:29;2.17;;;1.30;;
8626;SDS011;4351;51.422;6.794;2024-03-02T11:40:57;3.77;;;1.43;;
8626;SDS011;4351;51.422;6.794;2024-03-02T11:43:27;2.17;;;1.30;;
8626;SDS011;4351;51.422;6.794;2024-03-02T11:45:58;3.30;;;1.30;;
8626;SDS011;4351;51.422;6.794;2024-03-02T11:48:26;2.73;;;1.20;;
8626;SDS011;4351;51.422;6.794;2024-03-02T11:50:54;3.30;;;1.60;;
8626;SDS011;4351;51.422;6.794;2024-03-02T11:53:25;1.80;;;1.10;;
8626;SDS011;4351;51.422;6.794;2024-03-02T11:56:00;3.13;;;1.20;;
8626;SDS011;4351;51.422;6.794;2024-03-02T11:58:28;4.90;;;1.80;;
8626;SDS011;4351;51.422;6.794;2024-03-02T12:00:58;2.33;;;1.30;;
8626;SDS011;4351;51.422;6.794;2024-03-02T12:03:26;2.43;;;1.50;;
8626;SDS011;4351;51.422;6.794;2024-03-02T12:05:56;1.97;;;1.00;;
8626;SDS011;4351;51.422;6.794;2024-03-02T12:08:24;1.33;;;0.90;;
8626;SDS011;4351;51.422;6.794;2024-03-02T12:10:56;2.60;;;1.33;;
8626;SDS011;4351;51.422;6.794;2024-03-02T12:13:25;2.03;;;1.03;;
8626;SDS011;4351;51.422;6.794;2024-03-02T12:15:54;4.70;;;1.23;;
8626;SDS011;4351;51.422;6.794;2024-03-02T12:18:24;4.17;;;1.30;;
8626;SDS011;4351;51.422;6.794;2024-03-02T12:20:53;4.00;;;2.00;;
8626;SDS011;4351;51.422;6.794;2024-03-02T12:23:25;2.33;;;1.20;;
8626;SDS011;4351;51.422;6.794;2024-03-02T12:25:53;1.37;;;1.07;;
8626;SDS011;4351;51.422;6.794;2024-03-02T12:28:23;5.03;;;1.50;;
8626;SDS011;4351;51.422;6.794;2024-03-02T12:30:56;2.90;;;1.07;;
8626;SDS011;4351;51.422;6.794;2024-03-02T12:33:24;2.67;;;1.37;;
8626;SDS011;4351;51.422;6.794;2024-03-02T12:35:53;2.83;;;1.50;;
8626;SDS011;4351;51.422;6.794;2024-03-02T12:38:21;3.60;;;1.33;;
8626;SDS011;4351;51.422;6.794;2024-03-02T12:40:52;2.07;;;1.10;;
8626;SDS011;4351;51.422;6.794;2024-03-02T12:43:19;5.00;;;1.23;;
8626;SDS011;4351;51.422;6.794;2024-03-02T12:45:47;3.20;;;1.20;;
8626;SDS011;4351;51.422;6.794;2024-03-02T12:48:16;2.90;;;1.20;;
8626;SDS011;4351;51.422;6.794;2024-03-02T12:50:44;3.57;;;1.20;;
8626;SDS011;4351;51.422;6.794;2024-03-02T12:53:14;2.20;;;1.27;;
8626;SDS011;4351;51.422;6.794;2024-03-02T12:55:41;2.23;;;1.10;;
8626;SDS011;4351;51.422;6.794;2024-03-02T12:58:16;4.17;;;1.20;;
8626;SDS011;4351;51.422;6.794;2024-03-02T13:00:43;1.87;;;1.20;;
8626;SDS011;4351;51.422;6.794;2024-03-02T13:03:11;2.00;;;1.10;;
8626;SDS011;4351;51.422;6.794;2024-03-02T13:05:43;3.17;;;1.00;;
8626;SDS011;4351;51.422;6.794;2024-03-02T13:08:15;2.87;;;1.30;;
8626;SDS011;4351;51.422;6.794;2024-03-02T13:10:43;4.37;;;1.60;;
8626;SDS011;4351;51.422;6.794;2024-03-02T13:13:11;3.73;;;1.23;;
8626;SDS011;4351;51.422;6.794;2024-03-02T13:15:39;4.23;;;1.23;;
8626;SDS011;4351;51.422;6.794;2024-03-02T13:18:07;2.00;;;1.13;;
8626;SDS011;4351;51.422;6.794;2024-03-02T13:20:35;2.83;;;1.27;;
8626;SDS011;4351;51.422;6.794;2024-03-02T13:23:05;2.17;;;1.20;;
8626;SDS011;4351;51.422;6.794;2024-03-02T13:25:32;3.17;;;1.10;;
8626;SDS011;4351;51.422;6.794;2024-03-02T13:28:00;3.80;;;1.20;;
8626;SDS011;4351;51.422;6.794;2024-03-02T13:30:29;2.03;;;1.00;;
8626;SDS011;4351;51.422;6.794;2024-03-02T13:32:57;2.23;;;1.10;;
8626;SDS011;4351;51.422;6.794;2024-03-02T13:35:25;1.90;;;1.20;;
8626;SDS011;4351;51.422;6.794;2024-03-02T13:37:52;1.30;;;0.93;;
8626;SDS011;4351;51.422;6.794;2024-03-02T13:40:21;2.47;;;1.17;;
8626;SDS011;4351;51.422;6.794;2024-03-02T13:42:50;2.30;;;0.97;;
8626;SDS011;4351;51.422;6.794;2024-03-02T13:45:20;2.20;;;1.13;;
8626;SDS011;4351;51.422;6.794;2024-03-02T13:47:48;1.87;;;1.10;;
8626;SDS011;4351;51.422;6.794;2024-03-02T13:50:15;3.83;;;1.20;;
8626;SDS011;4351;51.422;6.794;2024-03-02T13:52:43;1.53;;;0.90;;
8626;SDS011;4351;51.422;6.794;2024-03-02T13:55:12;1.97;;;1.13;;
8626;SDS011;4351;51.422;6.794;2024-03-02T13:57:42;2.90;;;1.10;;
8626;SDS011;4351;51.422;6.794;2024-03-02T14:00:10;3.57;;;1.50;;
8626;SDS011;4351;51.422;6.794;2024-03-02T14:02:38;3.20;;;1.30;;
8626;SDS011;4351;51.422;6.794;2024-03-02T14:05:07;2.50;;;1.07;;
8626;SDS011;4351;51.422;6.794;2024-03-02T14:07:37;1.40;;;1.00;;
8626;SDS011;4351;51.422;6.794;2024-03-02T14:10:05;1.50;;;0.97;;
8626;SDS011;4351;51.422;6.794;2024-03-02T14:12:33;1.83;;;1.00;;
8626;SDS011;4351;51.422;6.794;2024-03-02T14:15:02;2.07;;;1.00;;
8626;SDS011;4351;51.422;6.794;2024-03-02T14:17:30;2.43;;;1.23;;
8626;SDS011;4351;51.422;6.794;2024-03-02T14:19:58;1.90;;;0.90;;
8626;SDS011;4351;51.422;6.794;2024-03-02T14:22:26;1.40;;;0.87;;
8626;SDS011;4351;51.422;6.794;2024-03-02T14:24:54;2.40;;;1.10;;
8626;SDS011;4351;51.422;6.794;2024-03-02T14:27:21;4.27;;;1.30;;
8626;SDS011;4351;51.422;6.794;2024-03-02T14:30:11;2.03;;;0.90;;
8626;SDS011;4351;51.422;6.794;2024-03-02T14:32:39;1.40;;;1.03;;
8626;SDS011;4351;51.422;6.794;2024-03-02T14:35:07;2.13;;;1.07;;
8626;SDS011;4351;51.422;6.794;2024-03-02T14:37:37;2.50;;;1.20;;
8626;SDS011;4351;51.422;6.794;2024-03-02T14:40:06;2.63;;;1.00;;
8626;SDS011;4351;51.422;6.794;2024-03-02T14:42:36;2.47;;;0.93;;
8626;SDS011;4351;51.422;6.794;2024-03-02T14:45:04;3.53;;;0.90;;
8626;SDS011;4351;51.422;6.794;2024-03-02T14:47:33;1.07;;;0.80;;
8626;SDS011;4351;51.422;6.794;2024-03-02T14:50:01;1.67;;;0.87;;
8626;SDS011;4351;51.422;6.794;2024-03-02T14:52:32;1.67;;;0.90;;
8626;SDS011;4351;51.422;6.794;2024-03-02T14:55:00;1.20;;;0.80;;
8626;SDS011;4351;51.422;6.794;2024-03-02T14:57:29;1.33;;;1.00;;
8626;SDS011;4351;51.422;6.794;2024-03-02T14:59:57;2.50;;;0.90;;
8626;SDS011;4351;51.422;6.794;2024-03-02T15:02:25;1.60;;;0.90;;
8626;SDS011;4351;51.422;6.794;2024-03-02T15:04:56;1.37;;;0.90;;
8626;SDS011;4351;51.422;6.794;2024-03-02T15:07:24;1.57;;;0.93;;
8626;SDS011;4351;51.422;6.794;2024-03-02T15:09:51;1.50;;;0.90;;
8626;SDS011;4351;51.422;6.794;2024-03-02T15:12:20;1.73;;;0.80;;
8626;SDS011;4351;51.422;6.794;2024-03-02T15:14:49;1.93;;;0.77;;
8626;SDS011;4351;51.422;6.794;2024-03-02T15:17:17;1.70;;;1.10;;
8626;SDS011;4351;51.422;6.794;2024-03-02T15:19:45;1.57;;;0.70;;
8626;SDS011;4351;51.422;6.794;2024-03-02T15:22:15;2.03;;;0.90;;
8626;SDS011;4351;51.422;6.794;2024-03-02T15:24:43;2.43;;;0.60;;